createdAt,value
2022-11-25T00:01:22.088Z,100.00
2022-11-25T00:03:50.357Z,100.00
2022-11-25T00:06:23.399Z,100.00
2022-11-25T00:08:53.959Z,100.00
2022-11-25T00:11:21.056Z,100.00
2022-11-25T00:13:49.160Z,100.00
2022-11-25T00:16:19.100Z,100.00
2022-11-25T00:18:52.272Z,100.00
2022-11-25T00:21:22.999Z,100.00
2022-11-25T00:23:58.771Z,100.00
2022-11-25T00:26:27.966Z,100.00
2022-11-25T00:28:58.108Z,100.00
2022-11-25T00:31:26.614Z,100.00
2022-11-25T00:33:53.879Z,100.00
2022-11-25T00:36:26.443Z,100.00
2022-11-25T00:38:59.330Z,100.00
2022-11-25T00:41:46.204Z,100.00
2022-11-25T00:44:36.046Z,100.00
2022-11-25T00:47:10.089Z,100.00
2022-11-25T00:49:43.164Z,100.00
2022-11-25T00:52:13.418Z,100.00
2022-11-25T00:54:40.551Z,100.00
2022-11-25T00:57:07.685Z,100.00
2022-11-25T00:59:34.844Z,100.00
2022-11-25T01:02:02.163Z,100.00
2022-11-25T01:04:29.369Z,100.00
2022-11-25T01:06:57.110Z,100.00
2022-11-25T01:09:24.409Z,100.00
2022-11-25T01:11:53.511Z,100.00
2022-11-25T01:14:21.808Z,100.00
2022-11-25T01:16:49.877Z,100.00
2022-11-25T01:19:17.671Z,100.00
2022-11-25T01:21:45.169Z,100.00
2022-11-25T01:24:14.520Z,100.00
2022-11-25T01:26:41.921Z,100.00
2022-11-25T01:29:17.673Z,100.00
2022-11-25T01:31:45.828Z,100.00
2022-11-25T01:34:22.831Z,100.00
2022-11-25T01:36:50.529Z,100.00
2022-11-25T01:39:20.622Z,100.00
2022-11-25T01:41:48.879Z,100.00
2022-11-25T01:44:17.639Z,100.00
2022-11-25T01:47:26.159Z,100.00
2022-11-25T01:50:03.737Z,100.00
2022-11-25T01:52:39.489Z,100.00
2022-11-25T01:55:06.681Z,100.00
2022-11-25T01:57:42.261Z,100.00
2022-11-25T02:00:10.318Z,100.00
2022-11-25T02:02:49.738Z,100.00
2022-11-25T02:05:19.951Z,100.00
2022-11-25T02:07:51.627Z,100.00
2022-11-25T02:10:26.977Z,100.00
2022-11-25T02:12:54.310Z,100.00
2022-11-25T02:15:22.278Z,100.00
2022-11-25T02:17:49.642Z,100.00
2022-11-25T02:20:19.232Z,100.00
2022-11-25T02:23:01.440Z,100.00
2022-11-25T02:25:34.895Z,100.00
2022-11-25T02:28:13.813Z,100.00
2022-11-25T02:30:41.650Z,100.00
2022-11-25T02:33:08.899Z,100.00
2022-11-25T02:35:43.932Z,100.00
2022-11-25T02:38:19.398Z,100.00
2022-11-25T02:40:55.341Z,100.00
2022-11-25T02:43:24.154Z,100.00
2022-11-25T02:45:59.806Z,100.00
2022-11-25T02:48:52.959Z,100.00
2022-11-25T02:51:18.459Z,100.00
2022-11-25T02:53:46.000Z,100.00
2022-11-25T02:56:14.570Z,100.00
2022-11-25T02:58:42.521Z,100.00
2022-11-25T03:01:10.507Z,100.00
2022-11-25T03:03:38.478Z,100.00
2022-11-25T03:06:07.622Z,100.00
2022-11-25T03:08:35.199Z,100.00
2022-11-25T03:11:06.609Z,100.00
2022-11-25T03:13:34.512Z,100.00
2022-11-25T03:16:01.715Z,100.00
2022-11-25T03:18:28.832Z,100.00
2022-11-25T03:20:56.683Z,100.00
2022-11-25T03:23:25.964Z,100.00
2022-11-25T03:25:57.594Z,100.00
2022-11-25T03:28:24.718Z,100.00
2022-11-25T03:30:52.320Z,100.00
2022-11-25T03:33:19.474Z,100.00
2022-11-25T03:35:49.037Z,100.00
2022-11-25T03:38:17.299Z,100.00
2022-11-25T03:40:44.371Z,100.00
2022-11-25T03:43:12.332Z,100.00
2022-11-25T03:45:40.793Z,100.00
2022-11-25T03:48:09.208Z,100.00
2022-11-25T03:50:37.487Z,100.00
2022-11-25T03:53:04.619Z,100.00
2022-11-25T03:55:31.693Z,100.00
2022-11-25T03:57:59.758Z,100.00
2022-11-25T04:00:26.936Z,100.00
2022-11-25T04:03:01.283Z,100.00
2022-11-25T04:05:30.048Z,100.00
2022-11-25T04:08:00.879Z,100.00
2022-11-25T04:10:28.037Z,100.00
2022-11-25T04:12:55.364Z,100.00
2022-11-25T04:15:28.683Z,100.00
2022-11-25T04:17:58.123Z,100.00
2022-11-25T04:20:25.649Z,100.00
2022-11-25T04:22:59.160Z,100.00
2022-11-25T04:25:26.403Z,100.00
2022-11-25T04:27:53.482Z,100.00
2022-11-25T04:30:26.696Z,100.00
2022-11-25T04:32:54.311Z,100.00
2022-11-25T04:35:21.463Z,100.00
2022-11-25T04:37:52.592Z,100.00
2022-11-25T04:40:19.763Z,100.00
2022-11-25T04:42:59.783Z,100.00
2022-11-25T04:45:45.392Z,100.00
2022-11-25T04:48:17.548Z,100.00
2022-11-25T04:50:44.738Z,100.00
2022-11-25T04:53:13.876Z,100.00
2022-11-25T04:55:41.502Z,100.00
2022-11-25T04:58:14.562Z,100.00
2022-11-25T05:00:42.439Z,100.00
2022-11-25T05:03:12.357Z,100.00
2022-11-25T05:05:39.755Z,100.00
2022-11-25T05:08:07.422Z,100.00
2022-11-25T05:10:34.893Z,100.00
2022-11-25T05:13:02.044Z,100.00
2022-11-25T05:15:30.602Z,100.00
2022-11-25T05:17:57.764Z,100.00
2022-11-25T05:20:40.880Z,100.00
2022-11-25T05:23:08.261Z,100.00
2022-11-25T05:25:35.469Z,100.00
2022-11-25T05:28:25.839Z,100.00
2022-11-25T05:30:53.784Z,100.00
2022-11-25T05:33:21.079Z,100.00
2022-11-25T05:35:59.248Z,100.00
2022-11-25T05:38:31.689Z,100.00
2022-11-25T05:41:05.247Z,100.00
2022-11-25T05:43:33.333Z,100.00
2022-11-25T05:46:05.368Z,100.00
2022-11-25T05:48:34.318Z,100.00
2022-11-25T05:51:02.815Z,100.00
2022-11-25T05:53:31.682Z,100.00
2022-11-25T05:56:01.378Z,100.00
2022-11-25T05:58:48.935Z,100.00
2022-11-25T06:01:17.190Z,100.00
2022-11-25T06:03:47.496Z,100.00
2022-11-25T06:06:16.239Z,100.00
2022-11-25T06:08:43.940Z,100.00
2022-11-25T06:11:14.676Z,100.00
2022-11-25T06:13:44.353Z,100.00
2022-11-25T06:16:14.817Z,100.00
2022-11-25T06:18:42.287Z,100.00
2022-11-25T06:21:10.920Z,100.00
2022-11-25T06:23:38.991Z,100.00
2022-11-25T06:26:11.208Z,100.00
2022-11-25T06:28:38.758Z,100.00
2022-11-25T06:31:14.753Z,100.00
2022-11-25T06:33:53.629Z,100.00
2022-11-25T06:36:21.613Z,100.00
2022-11-25T06:38:51.503Z,100.00
2022-11-25T06:41:19.448Z,100.00
2022-11-25T06:43:46.646Z,100.00
2022-11-25T06:46:21.126Z,100.00
2022-11-25T06:48:51.565Z,100.00
2022-11-25T06:51:18.831Z,100.00
2022-11-25T06:53:46.197Z,100.00
2022-11-25T06:56:22.391Z,100.00
2022-11-25T06:58:50.843Z,100.00
2022-11-25T07:01:23.812Z,100.00
2022-11-25T07:03:54.250Z,100.00
2022-11-25T07:06:21.592Z,100.00
2022-11-25T07:08:49.124Z,100.00
2022-11-25T07:11:19.677Z,100.00
2022-11-25T07:13:47.931Z,100.00
2022-11-25T07:16:15.574Z,100.00
2022-11-25T07:18:42.899Z,100.00
2022-11-25T07:21:15.754Z,100.00
2022-11-25T07:23:45.201Z,100.00
2022-11-25T07:26:18.370Z,100.00
2022-11-25T07:28:45.960Z,100.00
2022-11-25T07:31:23.703Z,100.00
2022-11-25T07:34:17.920Z,100.00
2022-11-25T07:36:45.844Z,100.00
2022-11-25T07:39:15.872Z,100.00
2022-11-25T07:41:43.680Z,100.00
2022-11-25T07:44:14.182Z,100.00
2022-11-25T07:47:04.171Z,100.00
2022-11-25T07:49:31.321Z,100.00
2022-11-25T07:52:04.644Z,100.00
2022-11-25T07:54:33.360Z,100.00
2022-11-25T07:57:00.440Z,100.00
2022-11-25T07:59:27.759Z,100.00
2022-11-25T08:01:56.283Z,100.00
2022-11-25T08:04:23.930Z,100.00
2022-11-25T08:06:53.033Z,100.00
2022-11-25T08:09:23.917Z,100.00
2022-11-25T08:11:51.922Z,100.00
2022-11-25T08:14:19.231Z,100.00
2022-11-25T08:16:46.852Z,100.00
2022-11-25T08:19:16.094Z,100.00
2022-11-25T08:21:43.905Z,100.00
2022-11-25T08:24:20.154Z,100.00
2022-11-25T08:26:48.581Z,100.00
2022-11-25T08:29:17.423Z,100.00
2022-11-25T08:31:45.081Z,100.00
2022-11-25T08:34:25.048Z,100.00
2022-11-25T08:36:59.032Z,100.00
2022-11-25T08:39:51.168Z,100.00
2022-11-25T08:42:13.295Z,100.00
2022-11-25T08:44:40.850Z,100.00
2022-11-25T08:47:08.086Z,100.00
2022-11-25T08:49:40.853Z,100.00
2022-11-25T08:52:10.033Z,100.00
2022-11-25T08:54:37.284Z,100.00
2022-11-25T08:57:05.241Z,100.00
2022-11-25T08:59:32.396Z,100.00
2022-11-25T09:01:59.685Z,100.00
2022-11-25T09:04:27.003Z,100.00
2022-11-25T09:06:54.481Z,100.00
2022-11-25T09:09:21.796Z,100.00
2022-11-25T09:11:49.274Z,100.00
2022-11-25T09:14:16.390Z,100.00
2022-11-25T09:16:43.679Z,100.00
2022-11-25T09:19:10.833Z,100.00
2022-11-25T09:21:37.924Z,100.00
2022-11-25T09:24:05.119Z,100.00
2022-11-25T09:26:35.963Z,100.00
2022-11-25T09:29:04.262Z,100.00
2022-11-25T09:31:31.918Z,100.00
2022-11-25T09:33:59.651Z,100.00
2022-11-25T09:36:26.983Z,100.00
2022-11-25T09:38:54.124Z,100.00
2022-11-25T09:41:57.879Z,100.00
2022-11-25T09:45:08.010Z,100.00
2022-11-25T09:48:01.083Z,100.00
2022-11-25T09:50:40.484Z,100.00
2022-11-25T09:53:15.969Z,100.00
2022-11-25T09:55:47.583Z,100.00
2022-11-25T09:58:29.650Z,100.00
2022-11-25T10:00:58.499Z,100.00
2022-11-25T10:03:44.380Z,100.00
2022-11-25T10:06:25.297Z,100.00
2022-11-25T10:09:07.510Z,100.00
2022-11-25T10:11:46.445Z,100.00
2022-11-25T10:14:34.753Z,100.00
2022-11-25T10:17:22.931Z,100.00
2022-11-25T10:19:59.439Z,100.00
2022-11-25T10:22:31.063Z,100.00
2022-11-25T10:25:02.393Z,100.00
2022-11-25T10:27:42.019Z,100.00
2022-11-25T10:30:21.951Z,100.00
2022-11-25T10:33:19.319Z,100.00
2022-11-25T10:35:52.593Z,100.00
2022-11-25T10:38:29.491Z,100.00
2022-11-25T10:40:57.441Z,100.00
2022-11-25T10:43:30.226Z,100.00
2022-11-25T10:46:49.682Z,100.00
2022-11-25T10:49:30.956Z,100.00
2022-11-25T10:51:58.181Z,100.00
2022-11-25T10:54:28.289Z,100.00
2022-11-25T10:57:00.049Z,100.00
2022-11-25T10:59:34.724Z,100.00
2022-11-25T11:02:07.804Z,100.00
2022-11-25T11:04:35.636Z,100.00
2022-11-25T11:07:14.648Z,100.00
2022-11-25T11:09:41.980Z,100.00
2022-11-25T11:12:21.573Z,100.00
2022-11-25T11:14:49.291Z,100.00
2022-11-25T11:17:37.113Z,100.00
2022-11-25T11:20:25.179Z,100.00
2022-11-25T11:22:58.604Z,100.00
2022-11-25T11:25:29.860Z,100.00
2022-11-25T11:27:57.286Z,100.00
2022-11-25T11:30:27.850Z,100.00
2022-11-25T11:32:59.562Z,100.00
2022-11-25T11:35:29.518Z,100.00
2022-11-25T11:38:07.210Z,100.00
2022-11-25T11:40:40.042Z,100.00
2022-11-25T11:43:10.208Z,100.00
2022-11-25T11:45:49.478Z,100.00
2022-11-25T11:48:38.551Z,100.00
2022-11-25T11:51:44.519Z,100.00
2022-11-25T11:54:33.008Z,100.00
2022-11-25T11:57:10.912Z,100.00
2022-11-25T11:59:53.602Z,100.00
2022-11-25T12:02:33.152Z,100.00
2022-11-25T12:05:18.091Z,100.00
2022-11-25T12:07:55.168Z,100.00
2022-11-25T12:10:33.213Z,100.00
2022-11-25T12:13:17.601Z,100.00
2022-11-25T12:16:11.150Z,100.00
2022-11-25T12:18:47.939Z,100.00
2022-11-25T12:21:41.558Z,100.00
2022-11-25T12:24:24.832Z,100.00
2022-11-25T12:27:17.409Z,100.00
2022-11-25T12:29:53.487Z,100.00
2022-11-25T12:32:38.721Z,100.00
2022-11-25T12:35:11.732Z,100.00
2022-11-25T12:38:03.188Z,100.00
2022-11-25T12:41:08.832Z,100.00
2022-11-25T12:43:53.728Z,100.00
2022-11-25T12:46:44.070Z,100.00
2022-11-25T12:49:26.242Z,100.00
2022-11-25T12:52:11.323Z,100.00
2022-11-25T12:55:10.550Z,100.00
2022-11-25T12:58:24.876Z,100.00
2022-11-25T13:01:10.336Z,100.00
2022-11-25T13:04:14.763Z,100.00
2022-11-25T13:07:12.863Z,100.00
2022-11-25T13:09:54.880Z,100.00
2022-11-25T13:12:24.850Z,100.00
2022-11-25T13:14:55.214Z,100.00
2022-11-25T13:17:24.774Z,100.00
2022-11-25T13:20:30.011Z,100.00
2022-11-25T13:23:05.959Z,100.00
2022-11-25T13:25:34.153Z,100.00
2022-11-25T13:28:04.681Z,100.00
2022-11-25T13:30:34.843Z,100.00
2022-11-25T13:33:13.661Z,100.00
2022-11-25T13:35:43.691Z,100.00
2022-11-25T13:38:29.509Z,100.00
2022-11-25T13:41:24.743Z,100.00
2022-11-25T13:44:18.160Z,100.00
2022-11-25T13:46:48.813Z,100.00
2022-11-25T13:49:33.714Z,100.00
2022-11-25T13:52:07.480Z,100.00
2022-11-25T13:54:44.537Z,100.00
2022-11-25T13:57:11.653Z,100.00
2022-11-25T13:59:48.798Z,100.00
2022-11-25T14:02:28.193Z,100.00
2022-11-25T14:05:01.653Z,100.00
2022-11-25T14:07:42.469Z,100.00
2022-11-25T14:10:18.612Z,100.00
2022-11-25T14:13:11.632Z,100.00
2022-11-25T14:15:47.923Z,100.00
2022-11-25T14:21:52.159Z,100.00
2022-11-25T14:24:30.894Z,100.00
2022-11-25T14:27:00.289Z,100.00
2022-11-25T14:29:39.062Z,100.00
2022-11-25T14:32:20.432Z,100.00
2022-11-25T14:34:53.328Z,100.00
2022-11-25T14:37:34.601Z,100.00
2022-11-25T14:40:08.428Z,100.00
2022-11-25T14:42:38.203Z,100.00
2022-11-25T14:45:22.125Z,100.00
2022-11-25T14:47:49.409Z,100.00
2022-11-25T14:53:12.328Z,100.00
2022-11-25T14:55:39.447Z,100.00
2022-11-25T14:58:06.653Z,100.00
2022-11-25T15:00:34.117Z,100.00
2022-11-25T15:03:06.871Z,100.00
2022-11-25T15:05:37.056Z,100.00
2022-11-25T15:08:18.095Z,100.00
2022-11-25T15:10:57.769Z,100.00
2022-11-25T15:13:35.019Z,100.00
2022-11-25T15:16:18.788Z,100.00
2022-11-25T15:18:55.524Z,100.00
2022-11-25T15:21:28.351Z,100.00
2022-11-25T15:23:55.719Z,100.00
2022-11-25T15:26:28.611Z,100.00
2022-11-25T15:28:58.212Z,100.00
2022-11-25T15:31:34.144Z,100.00
2022-11-25T15:34:05.080Z,100.00
2022-11-25T15:36:32.249Z,100.00
2022-11-25T15:39:15.710Z,100.00
2022-11-25T15:41:50.753Z,100.00
2022-11-25T15:44:29.735Z,100.00
2022-11-25T15:47:02.250Z,100.00
2022-11-25T15:49:30.099Z,100.00
2022-11-25T15:52:09.210Z,100.00
2022-11-25T15:54:44.126Z,100.00
2022-11-25T15:57:41.995Z,100.00
2022-11-25T16:00:20.129Z,100.00
2022-11-25T16:02:47.249Z,100.00
2022-11-25T16:05:18.000Z,100.00
2022-11-25T16:07:51.639Z,100.00
2022-11-25T16:10:50.299Z,100.00
2022-11-25T16:13:23.775Z,100.00
2022-11-25T16:15:58.734Z,100.00
2022-11-25T16:18:41.383Z,100.00
2022-11-25T16:21:18.858Z,100.00
2022-11-25T16:23:51.896Z,100.00
2022-11-25T16:26:32.703Z,100.00
2022-11-25T16:29:02.157Z,100.00
2022-11-25T16:31:29.331Z,100.00
2022-11-25T16:34:01.583Z,100.00
2022-11-25T16:36:28.685Z,100.00
2022-11-25T16:38:55.913Z,100.00
2022-11-25T16:41:25.566Z,100.00
2022-11-25T16:43:57.098Z,100.00
2022-11-25T16:46:26.934Z,100.00
2022-11-25T16:48:54.130Z,100.00
2022-11-25T16:51:24.338Z,100.00
2022-11-25T16:53:51.488Z,100.00
2022-11-25T16:56:26.954Z,100.00
2022-11-25T16:58:55.171Z,100.00
2022-11-25T17:01:26.153Z,100.00
2022-11-25T17:03:53.394Z,100.00
2022-11-25T17:06:26.277Z,100.00
2022-11-25T17:08:53.493Z,100.00
2022-11-25T17:11:26.242Z,100.00
2022-11-25T17:13:55.014Z,100.00
2022-11-25T17:16:28.731Z,100.00
2022-11-25T17:18:58.592Z,100.00
2022-11-25T17:21:29.918Z,100.00
2022-11-25T17:24:02.960Z,100.00
2022-11-25T17:26:39.305Z,100.00
2022-11-25T17:29:09.215Z,100.00
2022-11-25T17:31:38.982Z,100.00
2022-11-25T17:34:06.521Z,100.00
2022-11-25T17:36:33.609Z,100.00
2022-11-25T17:39:00.764Z,100.00
2022-11-25T17:41:29.386Z,100.00
2022-11-25T17:43:56.699Z,100.00
2022-11-25T17:46:28.812Z,100.00
2022-11-25T17:48:55.955Z,100.00
2022-11-25T17:51:23.161Z,100.00
2022-11-25T17:53:50.354Z,100.00
2022-11-25T17:56:20.044Z,100.00
2022-11-25T17:58:47.311Z,100.00
2022-11-25T18:01:14.933Z,100.00
2022-11-25T18:03:42.044Z,100.00
2022-11-25T18:06:09.381Z,100.00
2022-11-25T18:08:36.572Z,100.00
2022-11-25T18:11:06.785Z,100.00
2022-11-25T18:13:39.000Z,100.00
2022-11-25T18:16:08.174Z,100.00
2022-11-25T18:18:35.584Z,100.00
2022-11-25T18:21:02.764Z,100.00
2022-11-25T18:23:30.025Z,100.00
2022-11-25T18:26:00.442Z,100.00
2022-11-25T18:28:30.918Z,100.00
2022-11-25T18:31:02.877Z,100.00
2022-11-25T18:33:30.604Z,100.00
2022-11-25T18:35:58.119Z,100.00
2022-11-25T18:38:25.252Z,100.00
2022-11-25T18:40:54.162Z,100.00
2022-11-25T18:43:25.475Z,100.00
2022-11-25T18:45:54.486Z,100.00
2022-11-25T18:48:24.295Z,100.00
2022-11-25T18:50:53.494Z,100.00
2022-11-25T18:53:21.082Z,100.00
2022-11-25T18:55:49.373Z,100.00
2022-11-25T18:58:27.445Z,100.00
2022-11-25T19:01:01.325Z,100.00
2022-11-25T19:03:28.512Z,100.00
2022-11-25T19:05:58.692Z,100.00
2022-11-25T19:08:25.731Z,100.00
2022-11-25T19:10:53.215Z,100.00
2022-11-25T19:13:35.321Z,100.00
2022-11-25T19:16:07.761Z,100.00
2022-11-25T19:18:35.567Z,100.00
2022-11-25T19:21:02.788Z,100.00
2022-11-25T19:23:30.721Z,100.00
2022-11-25T19:26:05.089Z,100.00
2022-11-25T19:28:32.684Z,100.00
2022-11-25T19:31:05.444Z,100.00
2022-11-25T19:33:38.044Z,100.00
2022-11-25T19:36:06.555Z,100.00
2022-11-25T19:38:34.986Z,100.00
2022-11-25T19:41:02.291Z,100.00
2022-11-25T19:43:29.578Z,100.00
2022-11-25T19:45:57.871Z,100.00
2022-11-25T19:48:27.317Z,100.00
2022-11-25T19:50:59.967Z,100.00
2022-11-25T19:53:33.067Z,100.00
2022-11-25T19:56:04.421Z,100.00
2022-11-25T19:58:32.530Z,100.00
2022-11-25T20:01:04.212Z,100.00
2022-11-25T20:03:31.940Z,100.00
2022-11-25T20:05:59.484Z,100.00
2022-11-25T20:08:28.928Z,100.00
2022-11-25T20:10:57.119Z,100.00
2022-11-25T20:13:26.405Z,100.00
2022-11-25T20:15:55.831Z,100.00
2022-11-25T20:18:26.064Z,100.00
2022-11-25T20:21:05.282Z,100.00
2022-11-25T20:23:43.625Z,100.00
2022-11-25T20:26:38.564Z,100.00
2022-11-25T20:29:20.021Z,100.00
2022-11-25T20:31:47.457Z,100.00
2022-11-25T20:34:14.830Z,100.00
2022-11-25T20:36:44.499Z,100.00
2022-11-25T20:39:19.743Z,100.00
2022-11-25T20:41:52.900Z,100.00
2022-11-25T20:44:21.293Z,100.00
2022-11-25T20:46:48.526Z,100.00
2022-11-25T20:49:29.397Z,100.00
2022-11-25T20:51:57.671Z,100.00
2022-11-25T20:54:25.044Z,100.00
2022-11-25T20:56:52.422Z,100.00
2022-11-25T20:59:24.042Z,100.00
2022-11-25T21:01:52.942Z,100.00
2022-11-25T21:04:20.723Z,100.00
2022-11-25T21:06:47.811Z,99.93
2022-11-25T21:09:23.444Z,100.00
2022-11-25T21:11:50.815Z,100.00
2022-11-25T21:14:20.082Z,100.00
2022-11-25T21:16:47.957Z,100.00
2022-11-25T21:19:15.424Z,100.00
2022-11-25T21:21:45.362Z,100.00
2022-11-25T21:24:32.355Z,100.00
2022-11-25T21:27:03.162Z,100.00
2022-11-25T21:29:32.307Z,100.00
2022-11-25T21:31:59.615Z,100.00
2022-11-25T21:34:27.044Z,100.00
2022-11-25T21:36:55.104Z,100.00
2022-11-25T21:39:30.395Z,100.00
2022-11-25T21:42:02.332Z,100.00
2022-11-25T21:44:36.867Z,100.00
2022-11-25T21:47:16.284Z,100.00
2022-11-25T21:49:43.483Z,100.00
2022-11-25T21:52:11.323Z,100.00
2022-11-25T21:54:38.958Z,100.00
2022-11-25T21:57:06.443Z,100.00
2022-11-25T21:59:33.780Z,99.98
2022-11-25T22:02:01.125Z,100.00
2022-11-25T22:04:29.450Z,100.00
2022-11-25T22:06:56.530Z,99.83
2022-11-25T22:09:23.721Z,99.48
2022-11-25T22:11:53.187Z,99.83
2022-11-25T22:14:27.952Z,99.47
2022-11-25T22:16:58.318Z,99.65
2022-11-25T22:19:27.831Z,99.62
2022-11-25T22:21:55.616Z,99.60
2022-11-25T22:24:23.089Z,99.25
2022-11-25T22:26:57.455Z,99.36
2022-11-25T22:29:35.277Z,99.46
2022-11-25T22:32:09.766Z,99.72
2022-11-25T22:34:40.130Z,99.86
2022-11-25T22:37:22.732Z,99.67
2022-11-25T22:39:50.046Z,99.49
2022-11-25T22:42:37.656Z,99.43
2022-11-25T22:45:07.401Z,99.62
2022-11-25T22:47:44.289Z,99.81
2022-11-25T22:50:26.326Z,99.81
2022-11-25T22:52:54.402Z,99.31
2022-11-25T22:55:26.931Z,99.04
2022-11-25T22:57:56.700Z,99.32
2022-11-25T23:00:33.294Z,99.12
2022-11-25T23:03:02.920Z,99.12
2022-11-25T23:05:34.057Z,99.05
2022-11-25T23:08:14.272Z,99.22
2022-11-25T23:10:41.507Z,98.87
2022-11-25T23:13:09.160Z,99.06
2022-11-25T23:15:37.346Z,99.35
2022-11-25T23:18:07.728Z,99.38
2022-11-25T23:20:37.646Z,99.46
2022-11-25T23:23:17.071Z,99.56
2022-11-25T23:25:44.795Z,99.23
2022-11-25T23:28:12.450Z,99.32
2022-11-25T23:30:45.282Z,99.17
2022-11-25T23:33:38.310Z,99.19
2022-11-25T23:36:11.444Z,99.00
2022-11-25T23:38:43.695Z,99.11
2022-11-25T23:41:26.091Z,98.94
2022-11-25T23:43:53.770Z,99.34
2022-11-25T23:46:25.180Z,99.46
2022-11-25T23:48:56.169Z,99.31
2022-11-25T23:51:25.400Z,99.87
2022-11-25T23:53:53.772Z,99.52
2022-11-25T23:56:21.253Z,99.45
2022-11-25T23:58:49.762Z,99.39
